CBW9 weather

Madrona Bay Heliport
Madrona Bay, British Columbia, Canada

Public forecast

Using degrees Celsius for public forecast. Weather courtesy of forecast.io.

METAR (pilot weather report)

Closest report is Victoria International Airport, 12.8 nm (23.6 km) S. Retrieved 2019/07/20 15:00 UTC (2 minutes ago):

CYYJ 201500Z 27004KT 30SM FEW040 15/11 A3014 RMK SC1 SC TR SLP206

TAF (pilot weather forecast)

Closest forecast is Victoria International Airport, 12.8 nm (23.6 km) S. Retrieved 2019/07/20 12:42 UTC (2 hours ago):

TAF CYYJ 201138Z 2012/2112 27005KT P6SM SKC FM201500 29005KT P6SM SCT020 BECMG 2016/2018 07008KT FM202000 07008KT P6SM SKC BECMG 2101/2103 VRB03KT RMK NXT FCST BY 201800Z